sensor_id;sensor_type;location;lat;lon;timestamp;pressure;altitude;pressure_sealevel;temperature;humidity
6224;BME280;3145;42.726;23.342;2022-12-07T00:01:19;95362.59;;;5.30;nan
6224;BME280;3145;42.726;23.342;2022-12-07T00:03:47;95345.25;;;5.29;nan
6224;BME280;3145;42.726;23.342;2022-12-07T00:06:17;95347.16;;;5.37;nan
6224;BME280;3145;42.726;23.342;2022-12-07T00:08:45;95342.66;;;5.47;nan
6224;BME280;3145;42.726;23.342;2022-12-07T00:11:14;95341.81;;;5.46;nan
6224;BME280;3145;42.726;23.342;2022-12-07T00:13:42;95339.38;;;5.45;nan
6224;BME280;3145;42.726;23.342;2022-12-07T00:16:11;95343.16;;;5.50;nan
6224;BME280;3145;42.726;23.342;2022-12-07T00:18:39;95345.41;;;5.45;nan
6224;BME280;3145;42.726;23.342;2022-12-07T00:21:08;95347.59;;;5.50;nan
6224;BME280;3145;42.726;23.342;2022-12-07T00:23:38;95341.09;;;5.54;nan
6224;BME280;3145;42.726;23.342;2022-12-07T00:26:05;95333.16;;;5.46;nan
6224;BME280;3145;42.726;23.342;2022-12-07T00:28:33;95350.88;;;5.52;nan
6224;BME280;3145;42.726;23.342;2022-12-07T00:31:01;95355.09;;;5.45;nan
6224;BME280;3145;42.726;23.342;2022-12-07T00:33:28;95349.00;;;5.44;nan
6224;BME280;3145;42.726;23.342;2022-12-07T00:35:56;95358.38;;;5.47;nan
6224;BME280;3145;42.726;23.342;2022-12-07T00:38:22;95357.78;;;5.53;nan
6224;BME280;3145;42.726;23.342;2022-12-07T00:40:58;95358.81;;;5.60;nan
6224;BME280;3145;42.726;23.342;2022-12-07T00:43:25;95359.88;;;5.67;nan
6224;BME280;3145;42.726;23.342;2022-12-07T00:45:52;95351.38;;;5.65;nan
6224;BME280;3145;42.726;23.342;2022-12-07T00:48:20;95346.13;;;5.65;nan
6224;BME280;3145;42.726;23.342;2022-12-07T00:50:47;95344.44;;;5.64;nan
6224;BME280;3145;42.726;23.342;2022-12-07T00:53:14;95347.47;;;5.69;nan
6224;BME280;3145;42.726;23.342;2022-12-07T00:55:41;95346.13;;;5.65;nan
6224;BME280;3145;42.726;23.342;2022-12-07T00:58:09;95337.56;;;5.63;nan
6224;BME280;3145;42.726;23.342;2022-12-07T01:00:37;95329.84;;;5.61;nan
6224;BME280;3145;42.726;23.342;2022-12-07T01:03:04;95318.09;;;5.48;nan
6224;BME280;3145;42.726;23.342;2022-12-07T01:05:31;95341.47;;;5.59;nan
6224;BME280;3145;42.726;23.342;2022-12-07T01:07:57;95333.59;;;5.59;nan
6224;BME280;3145;42.726;23.342;2022-12-07T01:10:24;95343.31;;;5.66;nan
6224;BME280;3145;42.726;23.342;2022-12-07T01:12:51;95345.13;;;5.66;nan
6224;BME280;3145;42.726;23.342;2022-12-07T01:15:20;95342.53;;;5.66;nan
6224;BME280;3145;42.726;23.342;2022-12-07T01:17:46;95334.66;;;5.66;nan
6224;BME280;3145;42.726;23.342;2022-12-07T01:20:14;95321.84;;;5.63;nan
6224;BME280;3145;42.726;23.342;2022-12-07T01:22:41;95318.78;;;5.67;nan
6224;BME280;3145;42.726;23.342;2022-12-07T01:25:10;95328.50;;;5.75;nan
6224;BME280;3145;42.726;23.342;2022-12-07T01:27:37;95331.06;;;5.67;nan
6224;BME280;3145;42.726;23.342;2022-12-07T01:30:06;95326.78;;;5.66;nan
6224;BME280;3145;42.726;23.342;2022-12-07T01:32:34;95318.25;;;5.64;nan
6224;BME280;3145;42.726;23.342;2022-12-07T01:35:01;95314.06;;;5.71;nan
6224;BME280;3145;42.726;23.342;2022-12-07T01:37:28;95314.34;;;5.68;nan
6224;BME280;3145;42.726;23.342;2022-12-07T01:39:54;95322.06;;;5.69;nan
6224;BME280;3145;42.726;23.342;2022-12-07T01:42:21;95317.94;;;5.67;nan
6224;BME280;3145;42.726;23.342;2022-12-07T01:47:52;95319.59;;;5.68;nan
6224;BME280;3145;42.726;23.342;2022-12-07T01:50:20;95313.00;;;5.64;nan
6224;BME280;3145;42.726;23.342;2022-12-07T01:52:49;95289.69;;;5.53;nan
6224;BME280;3145;42.726;23.342;2022-12-07T01:55:17;95309.94;;;5.68;nan
6224;BME280;3145;42.726;23.342;2022-12-07T01:57:48;95308.81;;;5.71;nan
6224;BME280;3145;42.726;23.342;2022-12-07T02:00:15;95308.44;;;5.66;nan
6224;BME280;3145;42.726;23.342;2022-12-07T02:02:45;95306.75;;;5.57;nan
6224;BME280;3145;42.726;23.342;2022-12-07T02:05:16;95308.91;;;5.61;nan
6224;BME280;3145;42.726;23.342;2022-12-07T02:07:44;95309.38;;;5.57;nan
6224;BME280;3145;42.726;23.342;2022-12-07T02:10:14;95303.56;;;5.53;nan
6224;BME280;3145;42.726;23.342;2022-12-07T02:12:42;95300.97;;;5.53;nan
6224;BME280;3145;42.726;23.342;2022-12-07T02:15:10;95304.72;;;5.51;nan
6224;BME280;3145;42.726;23.342;2022-12-07T02:17:42;95302.09;;;5.51;nan
6224;BME280;3145;42.726;23.342;2022-12-07T02:20:21;95301.19;;;5.60;nan
6224;BME280;3145;42.726;23.342;2022-12-07T02:23:09;95296.63;;;5.62;nan
6224;BME280;3145;42.726;23.342;2022-12-07T02:28:34;95298.78;;;5.66;nan
6224;BME280;3145;42.726;23.342;2022-12-07T02:31:07;95290.09;;;5.66;nan
6224;BME280;3145;42.726;23.342;2022-12-07T02:33:40;95297.22;;;5.73;nan
6224;BME280;3145;42.726;23.342;2022-12-07T02:36:12;95287.56;;;5.74;nan
6224;BME280;3145;42.726;23.342;2022-12-07T02:38:45;95287.25;;;5.77;nan
6224;BME280;3145;42.726;23.342;2022-12-07T02:41:18;95285.59;;;5.76;nan
6224;BME280;3145;42.726;23.342;2022-12-07T02:43:52;95287.72;;;5.72;nan
6224;BME280;3145;42.726;23.342;2022-12-07T02:46:22;95291.97;;;5.73;nan
6224;BME280;3145;42.726;23.342;2022-12-07T02:48:51;95284.88;;;5.66;nan
6224;BME280;3145;42.726;23.342;2022-12-07T02:51:18;95281.94;;;5.69;nan
6224;BME280;3145;42.726;23.342;2022-12-07T02:53:45;95287.63;;;5.64;nan
6224;BME280;3145;42.726;23.342;2022-12-07T02:56:17;95289.41;;;5.64;nan
6224;BME280;3145;42.726;23.342;2022-12-07T02:58:54;95285.16;;;5.63;nan
6224;BME280;3145;42.726;23.342;2022-12-07T03:01:36;95279.91;;;5.63;nan
6224;BME280;3145;42.726;23.342;2022-12-07T03:04:14;95274.69;;;5.63;nan
6224;BME280;3145;42.726;23.342;2022-12-07T03:06:50;95271.41;;;5.61;nan
6224;BME280;3145;42.726;23.342;2022-12-07T03:09:21;95269.44;;;5.45;nan
6224;BME280;3145;42.726;23.342;2022-12-07T03:12:00;95268.25;;;5.40;nan
6224;BME280;3145;42.726;23.342;2022-12-07T03:14:37;95263.97;;;5.39;nan
6224;BME280;3145;42.726;23.342;2022-12-07T03:17:12;95270.88;;;5.40;nan
6224;BME280;3145;42.726;23.342;2022-12-07T03:19:40;95257.94;;;5.21;nan
6224;BME280;3145;42.726;23.342;2022-12-07T03:22:10;95265.09;;;5.19;nan
6224;BME280;3145;42.726;23.342;2022-12-07T03:24:43;95264.31;;;5.08;nan
6224;BME280;3145;42.726;23.342;2022-12-07T03:27:14;95262.69;;;5.07;nan
6224;BME280;3145;42.726;23.342;2022-12-07T03:29:47;95256.38;;;5.00;nan
6224;BME280;3145;42.726;23.342;2022-12-07T03:32:21;95255.91;;;5.15;nan
6224;BME280;3145;42.726;23.342;2022-12-07T03:34:56;95279.16;;;5.18;nan
6224;BME280;3145;42.726;23.342;2022-12-07T03:37:29;95272.81;;;5.20;nan
6224;BME280;3145;42.726;23.342;2022-12-07T03:40:03;95276.78;;;5.24;nan
6224;BME280;3145;42.726;23.342;2022-12-07T03:42:31;95278.88;;;5.21;nan
6224;BME280;3145;42.726;23.342;2022-12-07T03:44:59;95273.66;;;5.21;nan
6224;BME280;3145;42.726;23.342;2022-12-07T03:47:32;95223.94;;;4.93;nan
6224;BME280;3145;42.726;23.342;2022-12-07T03:50:04;95279.16;;;5.18;nan
6224;BME280;3145;42.726;23.342;2022-12-07T03:52:39;95280.81;;;5.19;nan
6224;BME280;3145;42.726;23.342;2022-12-07T03:55:11;95268.41;;;5.21;nan
6224;BME280;3145;42.726;23.342;2022-12-07T03:57:43;95266.44;;;5.23;nan
6224;BME280;3145;42.726;23.342;2022-12-07T04:00:12;95266.75;;;5.20;nan
6224;BME280;3145;42.726;23.342;2022-12-07T04:02:40;95268.41;;;5.21;nan
6224;BME280;3145;42.726;23.342;2022-12-07T04:05:08;95261.81;;;5.17;nan
6224;BME280;3145;42.726;23.342;2022-12-07T04:07:35;95262.63;;;5.17;nan
6224;BME280;3145;42.726;23.342;2022-12-07T04:10:02;95264.25;;;5.18;nan
6224;BME280;3145;42.726;23.342;2022-12-07T04:12:29;95256.88;;;5.14;nan
6224;BME280;3145;42.726;23.342;2022-12-07T04:14:56;95250.50;;;5.16;nan
6224;BME280;3145;42.726;23.342;2022-12-07T04:17:22;95256.88;;;5.14;nan
6224;BME280;3145;42.726;23.342;2022-12-07T04:19:50;95254.97;;;5.06;nan
6224;BME280;3145;42.726;23.342;2022-12-07T04:22:17;95257.16;;;5.11;nan
6224;BME280;3145;42.726;23.342;2022-12-07T04:24:44;95262.69;;;5.07;nan
6224;BME280;3145;42.726;23.342;2022-12-07T04:27:10;95267.94;;;5.07;nan
6224;BME280;3145;42.726;23.342;2022-12-07T04:29:37;95270.53;;;5.07;nan
6224;BME280;3145;42.726;23.342;2022-12-07T04:32:04;95269.03;;;5.05;nan
6224;BME280;3145;42.726;23.342;2022-12-07T04:34:31;95257.75;;;5.04;nan
6224;BME280;3145;42.726;23.342;2022-12-07T04:36:59;95258.56;;;5.05;nan
6224;BME280;3145;42.726;23.342;2022-12-07T04:39:27;95263.81;;;5.05;nan
6224;BME280;3145;42.726;23.342;2022-12-07T04:41:54;95271.94;;;5.02;nan
6224;BME280;3145;42.726;23.342;2022-12-07T04:44:22;95256.84;;;4.96;nan
6224;BME280;3145;42.726;23.342;2022-12-07T04:46:49;95270.47;;;4.99;nan
6224;BME280;3145;42.726;23.342;2022-12-07T04:49:17;95271.56;;;4.97;nan
6224;BME280;3145;42.726;23.342;2022-12-07T04:51:44;95277.09;;;4.94;nan
6224;BME280;3145;42.726;23.342;2022-12-07T04:54:13;95272.69;;;4.94;nan
6224;BME280;3145;42.726;23.342;2022-12-07T04:56:41;95276.16;;;4.95;nan
6224;BME280;3145;42.726;23.342;2022-12-07T04:59:08;95279.84;;;4.92;nan
6224;BME280;3145;42.726;23.342;2022-12-07T05:01:35;95274.94;;;4.89;nan
6224;BME280;3145;42.726;23.342;2022-12-07T05:04:02;95267.75;;;4.91;nan
6224;BME280;3145;42.726;23.342;2022-12-07T05:06:29;95255.75;;;4.71;nan
6224;BME280;3145;42.726;23.342;2022-12-07T05:08:56;95273.09;;;4.72;nan
6224;BME280;3145;42.726;23.342;2022-12-07T05:11:24;95279.97;;;4.73;nan
6224;BME280;3145;42.726;23.342;2022-12-07T05:14:09;95278.31;;;4.72;nan
6224;BME280;3145;42.726;23.342;2022-12-07T05:16:36;95267.84;;;4.72;nan
6224;BME280;3145;42.726;23.342;2022-12-07T05:19:03;95263.72;;;4.70;nan
6224;BME280;3145;42.726;23.342;2022-12-07T05:21:30;95208.56;;;4.36;nan
6224;BME280;3145;42.726;23.342;2022-12-07T05:23:56;95271.19;;;4.65;nan
6224;BME280;3145;42.726;23.342;2022-12-07T05:26:24;95275.78;;;4.63;nan
6224;BME280;3145;42.726;23.342;2022-12-07T05:28:51;95277.56;;;4.62;nan
6224;BME280;3145;42.726;23.342;2022-12-07T05:31:19;95272.19;;;4.64;nan
6224;BME280;3145;42.726;23.342;2022-12-07T05:33:46;95258.91;;;4.75;nan
6224;BME280;3145;42.726;23.342;2022-12-07T05:36:13;95267.09;;;4.89;nan
6224;BME280;3145;42.726;23.342;2022-12-07T05:38:40;95273.22;;;4.98;nan
6224;BME280;3145;42.726;23.342;2022-12-07T05:41:07;95280.69;;;4.93;nan
6224;BME280;3145;42.726;23.342;2022-12-07T05:43:56;95277.97;;;4.85;nan
6224;BME280;3145;42.726;23.342;2022-12-07T05:46:23;95276.63;;;4.81;nan
6224;BME280;3145;42.726;23.342;2022-12-07T05:48:49;95265.09;;;4.74;nan
6224;BME280;3145;42.726;23.342;2022-12-07T05:51:16;95269.63;;;4.81;nan
6224;BME280;3145;42.726;23.342;2022-12-07T05:53:43;95268.91;;;4.79;nan
6224;BME280;3145;42.726;23.342;2022-12-07T05:56:09;95261.94;;;4.70;nan
6224;BME280;3145;42.726;23.342;2022-12-07T05:58:36;95219.81;;;4.46;nan
6224;BME280;3145;42.726;23.342;2022-12-07T06:01:22;95258.97;;;4.65;nan
6224;BME280;3145;42.726;23.342;2022-12-07T06:03:49;95250.88;;;4.59;nan
6224;BME280;3145;42.726;23.342;2022-12-07T06:06:16;95266.50;;;4.68;nan
6224;BME280;3145;42.726;23.342;2022-12-07T06:08:42;95265.97;;;4.65;nan
6224;BME280;3145;42.726;23.342;2022-12-07T06:11:09;95259.91;;;4.64;nan
6224;BME280;3145;42.726;23.342;2022-12-07T06:13:53;95265.13;;;4.64;nan
6224;BME280;3145;42.726;23.342;2022-12-07T06:16:21;95269.41;;;4.65;nan
6224;BME280;3145;42.726;23.342;2022-12-07T06:18:48;95271.47;;;4.62;nan
6224;BME280;3145;42.726;23.342;2022-12-07T06:21:14;95267.31;;;4.69;nan
6224;BME280;3145;42.726;23.342;2022-12-07T06:23:41;95261.56;;;4.65;nan
6224;BME280;3145;42.726;23.342;2022-12-07T06:26:08;95273.69;;;4.66;nan
6224;BME280;3145;42.726;23.342;2022-12-07T06:28:34;95269.94;;;4.69;nan
6224;BME280;3145;42.726;23.342;2022-12-07T06:31:02;95272.00;;;4.75;nan
6224;BME280;3145;42.726;23.342;2022-12-07T06:33:30;95272.81;;;4.75;nan
6224;BME280;3145;42.726;23.342;2022-12-07T06:35:57;95277.31;;;4.83;nan
6224;BME280;3145;42.726;23.342;2022-12-07T06:38:24;95283.75;;;4.88;nan
6224;BME280;3145;42.726;23.342;2022-12-07T06:40:51;95288.41;;;4.94;nan
6224;BME280;3145;42.726;23.342;2022-12-07T06:43:17;95277.94;;;4.94;nan
6224;BME280;3145;42.726;23.342;2022-12-07T06:45:44;95290.28;;;5.02;nan
6224;BME280;3145;42.726;23.342;2022-12-07T06:48:11;95272.31;;;4.89;nan
6224;BME280;3145;42.726;23.342;2022-12-07T06:50:39;95276.81;;;4.97;nan
6224;BME280;3145;42.726;23.342;2022-12-07T06:53:06;95285.44;;;5.07;nan
6224;BME280;3145;42.726;23.342;2022-12-07T06:55:32;95287.75;;;5.10;nan
6224;BME280;3145;42.726;23.342;2022-12-07T06:57:59;95288.00;;;5.17;nan
6224;BME280;3145;42.726;23.342;2022-12-07T07:00:27;95288.81;;;5.17;nan
6224;BME280;3145;42.726;23.342;2022-12-07T07:02:53;95288.38;;;5.22;nan
6224;BME280;3145;42.726;23.342;2022-12-07T07:05:20;95292.63;;;5.23;nan
6224;BME280;3145;42.726;23.342;2022-12-07T07:07:49;95285.47;;;5.25;nan
6224;BME280;3145;42.726;23.342;2022-12-07T07:10:16;95281.25;;;5.32;nan
6224;BME280;3145;42.726;23.342;2022-12-07T07:12:43;95282.31;;;5.39;nan
6224;BME280;3145;42.726;23.342;2022-12-07T07:15:10;95288.63;;;5.46;nan
6224;BME280;3145;42.726;23.342;2022-12-07T07:17:37;95274.53;;;5.47;nan
6224;BME280;3145;42.726;23.342;2022-12-07T07:20:05;95288.16;;;5.68;nan
6224;BME280;3145;42.726;23.342;2022-12-07T07:22:32;95288.31;;;5.84;nan
6224;BME280;3145;42.726;23.342;2022-12-07T07:25:00;95287.72;;;5.90;nan
6224;BME280;3145;42.726;23.342;2022-12-07T07:27:27;95290.97;;;6.09;nan
6224;BME280;3145;42.726;23.342;2022-12-07T07:29:54;95277.47;;;6.22;nan
6224;BME280;3145;42.726;23.342;2022-12-07T07:32:20;95292.28;;;6.31;nan
6224;BME280;3145;42.726;23.342;2022-12-07T07:34:47;95286.53;;;6.27;nan
6224;BME280;3145;42.726;23.342;2022-12-07T07:37:14;95303.19;;;6.44;nan
6224;BME280;3145;42.726;23.342;2022-12-07T07:39:40;95299.00;;;6.59;nan
6224;BME280;3145;42.726;23.342;2022-12-07T07:42:09;95293.97;;;6.73;nan
6224;BME280;3145;42.726;23.342;2022-12-07T07:44:35;95297.22;;;7.01;nan
6224;BME280;3145;42.726;23.342;2022-12-07T07:47:02;95295.97;;;7.21;nan
6224;BME280;3145;42.726;23.342;2022-12-07T07:49:29;95297.88;;;7.60;nan
6224;BME280;3145;42.726;23.342;2022-12-07T07:51:55;95272.75;;;7.74;nan
6224;BME280;3145;42.726;23.342;2022-12-07T07:54:22;95275.38;;;7.82;nan
6224;BME280;3145;42.726;23.342;2022-12-07T07:56:49;95281.47;;;7.82;nan
6224;BME280;3145;42.726;23.342;2022-12-07T07:59:17;95283.63;;;7.79;nan
6224;BME280;3145;42.726;23.342;2022-12-07T08:01:44;95285.72;;;7.67;nan
6224;BME280;3145;42.726;23.342;2022-12-07T08:04:10;95282.63;;;7.64;nan
6224;BME280;3145;42.726;23.342;2022-12-07T08:06:37;95280.63;;;7.58;nan
6224;BME280;3145;42.726;23.342;2022-12-07T08:09:04;95287.84;;;7.56;nan
6224;BME280;3145;42.726;23.342;2022-12-07T08:11:31;95288.03;;;7.54;nan
6224;BME280;3145;42.726;23.342;2022-12-07T08:13:58;95290.44;;;7.32;nan
6224;BME280;3145;42.726;23.342;2022-12-07T08:16:26;95270.78;;;6.94;nan
6224;BME280;3145;42.726;23.342;2022-12-07T08:18:53;95281.66;;;6.66;nan
6224;BME280;3145;42.726;23.342;2022-12-07T08:21:20;95297.88;;;6.36;nan
6224;BME280;3145;42.726;23.342;2022-12-07T08:23:47;95297.50;;;6.31;nan
6224;BME280;3145;42.726;23.342;2022-12-07T08:26:15;95287.31;;;6.28;nan
6224;BME280;3145;42.726;23.342;2022-12-07T08:28:43;95286.97;;;6.23;nan
6224;BME280;3145;42.726;23.342;2022-12-07T08:31:13;95280.09;;;6.22;nan
6224;BME280;3145;42.726;23.342;2022-12-07T08:33:42;95297.31;;;6.24;nan
6224;BME280;3145;42.726;23.342;2022-12-07T08:36:11;95271.22;;;6.23;nan
6224;BME280;3145;42.726;23.342;2022-12-07T08:38:40;95269.53;;;6.39;nan
6224;BME280;3145;42.726;23.342;2022-12-07T08:41:08;95293.44;;;6.62;nan
6224;BME280;3145;42.726;23.342;2022-12-07T08:43:35;95276.41;;;6.66;nan
6224;BME280;3145;42.726;23.342;2022-12-07T08:46:06;95280.09;;;6.81;nan
6224;BME280;3145;42.726;23.342;2022-12-07T08:48:36;95259.38;;;6.78;nan
6224;BME280;3145;42.726;23.342;2022-12-07T08:51:05;95278.50;;;6.96;nan
6224;BME280;3145;42.726;23.342;2022-12-07T08:53:33;95280.94;;;6.97;nan
6224;BME280;3145;42.726;23.342;2022-12-07T08:56:01;95277.84;;;7.02;nan
6224;BME280;3145;42.726;23.342;2022-12-07T08:58:28;95266.88;;;7.06;nan
6224;BME280;3145;42.726;23.342;2022-12-07T09:00:54;95273.63;;;7.09;nan
6224;BME280;3145;42.726;23.342;2022-12-07T09:03:21;95261.31;;;7.09;nan
6224;BME280;3145;42.726;23.342;2022-12-07T09:05:48;95261.25;;;7.01;nan
6224;BME280;3145;42.726;23.342;2022-12-07T09:08:16;95261.09;;;6.95;nan
6224;BME280;3145;42.726;23.342;2022-12-07T09:10:43;95258.84;;;7.08;nan
6224;BME280;3145;42.726;23.342;2022-12-07T09:13:10;95256.84;;;7.02;nan
6224;BME280;3145;42.726;23.342;2022-12-07T09:15:36;95248.66;;;7.05;nan
6224;BME280;3145;42.726;23.342;2022-12-07T09:18:03;95198.34;;;6.68;nan
6224;BME280;3145;42.726;23.342;2022-12-07T09:20:30;95231.38;;;6.86;nan
6224;BME280;3145;42.726;23.342;2022-12-07T09:22:57;95255.53;;;6.98;nan
6224;BME280;3145;42.726;23.342;2022-12-07T09:25:25;95250.00;;;7.17;nan
6224;BME280;3145;42.726;23.342;2022-12-07T09:27:55;95245.09;;;7.30;nan
6224;BME280;3145;42.726;23.342;2022-12-07T09:30:23;95243.66;;;7.51;nan
6224;BME280;3145;42.726;23.342;2022-12-07T09:32:49;95238.53;;;7.42;nan
6224;BME280;3145;42.726;23.342;2022-12-07T09:35:16;95230.03;;;7.48;nan
6224;BME280;3145;42.726;23.342;2022-12-07T09:37:43;95226.25;;;7.50;nan
6224;BME280;3145;42.726;23.342;2022-12-07T09:40:10;95210.31;;;7.44;nan
6224;BME280;3145;42.726;23.342;2022-12-07T09:42:42;95218.03;;;7.53;nan
6224;BME280;3145;42.726;23.342;2022-12-07T09:45:15;95204.69;;;7.47;nan
6224;BME280;3145;42.726;23.342;2022-12-07T09:47:43;95217.38;;;7.59;nan
6224;BME280;3145;42.726;23.342;2022-12-07T09:50:14;95196.81;;;7.47;nan
6224;BME280;3145;42.726;23.342;2022-12-07T09:52:42;95201.44;;;7.53;nan
6224;BME280;3145;42.726;23.342;2022-12-07T09:55:12;95214.25;;;7.72;nan
6224;BME280;3145;42.726;23.342;2022-12-07T09:57:41;95211.13;;;7.68;nan
6224;BME280;3145;42.726;23.342;2022-12-07T10:00:13;95205.19;;;7.82;nan
6224;BME280;3145;42.726;23.342;2022-12-07T10:02:41;95207.34;;;7.87;nan
6224;BME280;3145;42.726;23.342;2022-12-07T10:05:14;95197.47;;;7.97;nan
6224;BME280;3145;42.726;23.342;2022-12-07T10:07:41;95198.25;;;8.29;nan
6224;BME280;3145;42.726;23.342;2022-12-07T10:10:15;95162.09;;;8.07;nan
6224;BME280;3145;42.726;23.342;2022-12-07T10:12:55;95178.16;;;8.20;nan
6224;BME280;3145;42.726;23.342;2022-12-07T10:15:22;95198.06;;;8.39;nan
6224;BME280;3145;42.726;23.342;2022-12-07T10:17:50;95185.41;;;8.34;nan
6224;BME280;3145;42.726;23.342;2022-12-07T10:20:22;95181.31;;;8.32;nan
6224;BME280;3145;42.726;23.342;2022-12-07T10:23:01;95170.28;;;8.36;nan
6224;BME280;3145;42.726;23.342;2022-12-07T10:25:30;95168.91;;;8.48;nan
6224;BME280;3145;42.726;23.342;2022-12-07T10:28:10;95170.06;;;8.38;nan
6224;BME280;3145;42.726;23.342;2022-12-07T10:30:50;95154.22;;;8.54;nan
6224;BME280;3145;42.726;23.342;2022-12-07T10:33:32;95154.97;;;8.70;nan
6224;BME280;3145;42.726;23.342;2022-12-07T10:36:00;95135.41;;;8.65;nan
6224;BME280;3145;42.726;23.342;2022-12-07T10:38:44;95133.16;;;8.54;nan
6224;BME280;3145;42.726;23.342;2022-12-07T10:41:11;95144.84;;;8.51;nan
6224;BME280;3145;42.726;23.342;2022-12-07T10:43:47;95100.84;;;8.37;nan
6224;BME280;3145;42.726;23.342;2022-12-07T10:46:50;95143.94;;;8.75;nan
6224;BME280;3145;42.726;23.342;2022-12-07T10:49:46;95142.22;;;8.82;nan
6224;BME280;3145;42.726;23.342;2022-12-07T10:52:26;95147.16;;;8.85;nan
6224;BME280;3145;42.726;23.342;2022-12-07T10:55:08;95146.69;;;8.81;nan
6224;BME280;3145;42.726;23.342;2022-12-07T10:57:47;95137.28;;;8.87;nan
6224;BME280;3145;42.726;23.342;2022-12-07T11:00:22;95112.56;;;8.88;nan
6224;BME280;3145;42.726;23.342;2022-12-07T11:05:45;95110.63;;;8.82;nan
6224;BME280;3145;42.726;23.342;2022-12-07T11:08:21;95115.53;;;8.85;nan
6224;BME280;3145;42.726;23.342;2022-12-07T11:10:59;95105.06;;;8.77;nan
6224;BME280;3145;42.726;23.342;2022-12-07T11:13:39;95102.66;;;8.90;nan
6224;BME280;3145;42.726;23.342;2022-12-07T11:16:24;95079.97;;;8.89;nan
6224;BME280;3145;42.726;23.342;2022-12-07T11:19:16;95109.22;;;8.94;nan
6224;BME280;3145;42.726;23.342;2022-12-07T11:21:51;95101.88;;;8.89;nan
6224;BME280;3145;42.726;23.342;2022-12-07T11:24:27;95100.56;;;8.85;nan
6224;BME280;3145;42.726;23.342;2022-12-07T11:27:09;95090.25;;;8.76;nan
6224;BME280;3145;42.726;23.342;2022-12-07T11:29:56;95087.50;;;8.69;nan
6224;BME280;3145;42.726;23.342;2022-12-07T11:32:41;95066.25;;;8.71;nan
6224;BME280;3145;42.726;23.342;2022-12-07T11:35:18;95062.06;;;8.84;nan
6224;BME280;3145;42.726;23.342;2022-12-07T11:37:49;95066.66;;;9.05;nan
6224;BME280;3145;42.726;23.342;2022-12-07T11:40:22;95064.63;;;9.15;nan
6224;BME280;3145;42.726;23.342;2022-12-07T11:42:57;95059.38;;;9.29;nan
6224;BME280;3145;42.726;23.342;2022-12-07T11:45:27;95075.97;;;9.38;nan
6224;BME280;3145;42.726;23.342;2022-12-07T11:47:59;95074.53;;;9.50;nan
6224;BME280;3145;42.726;23.342;2022-12-07T11:50:33;95065.81;;;9.64;nan
6224;BME280;3145;42.726;23.342;2022-12-07T11:53:03;95073.91;;;9.77;nan
6224;BME280;3145;42.726;23.342;2022-12-07T11:55:41;95032.78;;;9.53;nan
6224;BME280;3145;42.726;23.342;2022-12-07T11:58:18;95064.63;;;9.67;nan
6224;BME280;3145;42.726;23.342;2022-12-07T12:00:48;95059.19;;;9.83;nan
6224;BME280;3145;42.726;23.342;2022-12-07T12:03:23;95051.44;;;9.81;nan
6224;BME280;3145;42.726;23.342;2022-12-07T12:05:55;95058.47;;;9.89;nan
6224;BME280;3145;42.726;23.342;2022-12-07T12:08:26;95050.00;;;9.79;nan
6224;BME280;3145;42.726;23.342;2022-12-07T12:10:58;95044.63;;;9.72;nan
6224;BME280;3145;42.726;23.342;2022-12-07T12:16:43;95025.72;;;9.69;nan
6224;BME280;3145;42.726;23.342;2022-12-07T12:19:28;95038.28;;;9.96;nan
6224;BME280;3145;42.726;23.342;2022-12-07T12:22:03;95032.19;;;10.10;nan
6224;BME280;3145;42.726;23.342;2022-12-07T12:24:32;95027.91;;;10.23;nan
6224;BME280;3145;42.726;23.342;2022-12-07T12:27:05;95018.94;;;10.39;nan
6224;BME280;3145;42.726;23.342;2022-12-07T12:29:35;95000.69;;;10.08;nan
6224;BME280;3145;42.726;23.342;2022-12-07T12:32:14;95023.25;;;10.25;nan
6224;BME280;3145;42.726;23.342;2022-12-07T12:34:59;94994.75;;;10.21;nan
6224;BME280;3145;42.726;23.342;2022-12-07T12:37:43;95008.56;;;10.37;nan
6224;BME280;3145;42.726;23.342;2022-12-07T12:40:39;94999.72;;;10.45;nan
6224;BME280;3145;42.726;23.342;2022-12-07T12:43:42;94987.25;;;10.39;nan
6224;BME280;3145;42.726;23.342;2022-12-07T12:49:33;95003.22;;;10.16;nan
6224;BME280;3145;42.726;23.342;2022-12-07T12:55:15;95004.03;;;10.31;nan
6224;BME280;3145;42.726;23.342;2022-12-07T12:57:45;94984.75;;;10.16;nan
6224;BME280;3145;42.726;23.342;2022-12-07T13:00:16;94999.56;;;10.17;nan
6224;BME280;3145;42.726;23.342;2022-12-07T13:02:48;95005.41;;;10.27;nan
6224;BME280;3145;42.726;23.342;2022-12-07T13:05:18;95000.03;;;10.21;nan
6224;BME280;3145;42.726;23.342;2022-12-07T13:08:00;95005.41;;;10.27;nan
6224;BME280;3145;42.726;23.342;2022-12-07T13:10:34;95007.59;;;10.24;nan
6224;BME280;3145;42.726;23.342;2022-12-07T13:13:08;94998.13;;;10.00;nan
6224;BME280;3145;42.726;23.342;2022-12-07T13:15:52;94970.53;;;10.03;nan
6224;BME280;3145;42.726;23.342;2022-12-07T13:18:24;95005.03;;;10.30;nan
6224;BME280;3145;42.726;23.342;2022-12-07T13:21:01;94998.63;;;10.39;nan
6224;BME280;3145;42.726;23.342;2022-12-07T13:23:32;94996.06;;;10.46;nan
6224;BME280;3145;42.726;23.342;2022-12-07T13:26:17;94977.50;;;10.39;nan
6224;BME280;3145;42.726;23.342;2022-12-07T13:28:46;94980.03;;;10.47;nan
6224;BME280;3145;42.726;23.342;2022-12-07T13:31:19;94975.13;;;10.44;nan
6224;BME280;3145;42.726;23.342;2022-12-07T13:33:47;94980.94;;;10.54;nan
6224;BME280;3145;42.726;23.342;2022-12-07T13:36:20;94985.06;;;10.63;nan
6224;BME280;3145;42.726;23.342;2022-12-07T13:38:56;94989.75;;;10.61;nan
6224;BME280;3145;42.726;23.342;2022-12-07T13:41:25;94985.06;;;10.63;nan
6224;BME280;3145;42.726;23.342;2022-12-07T13:43:59;94965.50;;;10.58;nan
6224;BME280;3145;42.726;23.342;2022-12-07T13:46:35;94975.66;;;10.54;nan
6224;BME280;3145;42.726;23.342;2022-12-07T13:49:16;94939.91;;;10.37;nan
6224;BME280;3145;42.726;23.342;2022-12-07T13:51:43;94970.84;;;10.64;nan
6224;BME280;3145;42.726;23.342;2022-12-07T13:54:13;94985.59;;;10.73;nan
6224;BME280;3145;42.726;23.342;2022-12-07T13:56:41;94959.03;;;10.60;nan
6224;BME280;3145;42.726;23.342;2022-12-07T13:59:13;94977.91;;;10.78;nan
6224;BME280;3145;42.726;23.342;2022-12-07T14:01:41;94990.09;;;10.79;nan
6224;BME280;3145;42.726;23.342;2022-12-07T14:04:31;94987.47;;;10.79;nan
6224;BME280;3145;42.726;23.342;2022-12-07T14:06:58;94977.28;;;10.76;nan
6224;BME280;3145;42.726;23.342;2022-12-07T14:09:28;94991.75;;;10.80;nan
6224;BME280;3145;42.726;23.342;2022-12-07T14:11:56;94982.81;;;10.81;nan
6224;BME280;3145;42.726;23.342;2022-12-07T14:14:26;94989.28;;;10.79;nan
6224;BME280;3145;42.726;23.342;2022-12-07T14:17:12;94993.75;;;10.78;nan
6224;BME280;3145;42.726;23.342;2022-12-07T14:19:45;94986.03;;;10.77;nan